DAN378 EGCC-EDDH
Flight info
| Callsign | DAN378 |
|---|---|
| Flight time | 1h 20m |
| Altitude | 31000 |
| Route | DESIG L603 LAMSO DCT PETIK P154 SPY N873 ANDIK M105 RIBSO RIBSO7A |
| Aircraft | B463/M-SDFGIRWY/LB1 |
Departure
| Time | 2026-04-30 17:41 |
|---|---|
| Airport | Manchester Airport (EGCC) |
Arrival
| Time | 2026-04-30 19:02 |
|---|---|
| Airport | Hamburg Helmut Schmidt Airport (EDDH) |
| Time | Latitude | Longitude | Altitude | Speed | Heading |
|---|---|---|---|---|---|
| 2026-04-30 17:39 | 53.48372 | -1.99925 | 6566 ft | 270 kts | 56° |
| 2026-04-30 17:41 | 53.50925 | -1.77390 | 11129 ft | 270 kts | 112° |
| 2026-04-30 17:42 | 53.49725 | -1.71403 | 12298 ft | 274 kts | 111° |
| 2026-04-30 17:42 | 53.47951 | -1.62109 | 14043 ft | 282 kts | 110° |
| 2026-04-30 17:43 | 53.46801 | -1.55682 | 14882 ft | 296 kts | 110° |
| 2026-04-30 17:44 | 53.44926 | -1.45301 | 15638 ft | 321 kts | 109° |
| 2026-04-30 17:44 | 53.42936 | -1.34338 | 16539 ft | 333 kts | 109° |
| 2026-04-30 17:46 | 53.39505 | -1.15395 | 18149 ft | 345 kts | 109° |
| 2026-04-30 17:47 | 53.36660 | -0.99870 | 19338 ft | 352 kts | 109° |
| 2026-04-30 17:48 | 53.33726 | -0.84088 | 20526 ft | 358 kts | 109° |
| 2026-04-30 17:48 | 53.31504 | -0.72143 | 21374 ft | 362 kts | 109° |
| 2026-04-30 17:49 | 53.28485 | -0.55903 | 22508 ft | 368 kts | 109° |
| 2026-04-30 17:50 | 53.25399 | -0.39506 | 23570 ft | 374 kts | 110° |
| 2026-04-30 17:51 | 53.23008 | -0.27017 | 24267 ft | 377 kts | 110° |
| 2026-04-30 17:52 | 53.20601 | -0.14477 | 24898 ft | 381 kts | 110° |
| 2026-04-30 17:53 | 53.16491 | 0.06717 | 25900 ft | 387 kts | 110° |
| 2026-04-30 17:54 | 53.13133 | 0.23832 | 26645 ft | 392 kts | 110° |
| 2026-04-30 17:55 | 53.09723 | 0.41139 | 27349 ft | 396 kts | 110° |
| 2026-04-30 17:56 | 53.06219 | 0.58663 | 28003 ft | 400 kts | 110° |
| 2026-04-30 17:57 | 53.03567 | 0.71869 | 28443 ft | 403 kts | 111° |
| 2026-04-30 17:58 | 53.00893 | 0.85154 | 28845 ft | 406 kts | 111° |
| 2026-04-30 17:59 | 52.97499 | 1.03083 | 29365 ft | 411 kts | 105° |
| 2026-04-30 18:00 | 52.95339 | 1.21837 | 29808 ft | 414 kts | 103° |
| 2026-04-30 18:00 | 52.93712 | 1.35923 | 30116 ft | 416 kts | 103° |
| 2026-04-30 18:01 | 52.92599 | 1.45355 | 30291 ft | 418 kts | 103° |
| 2026-04-30 18:02 | 52.90904 | 1.59511 | 30530 ft | 419 kts | 103° |
| 2026-04-30 18:02 | 52.89173 | 1.73758 | 30753 ft | 420 kts | 103° |
| 2026-04-30 18:03 | 52.87436 | 1.88042 | 30942 ft | 422 kts | 103° |
| 2026-04-30 18:04 | 52.85697 | 2.02241 | 31226 ft | 421 kts | 103° |
| 2026-04-30 18:06 | 52.81133 | 2.38743 | 31275 ft | 423 kts | 103° |
| 2026-04-30 18:08 | 52.76873 | 2.71981 | 31283 ft | 422 kts | 103° |
| 2026-04-30 18:10 | 52.72256 | 3.09955 | 31287 ft | 423 kts | 99° |
| 2026-04-30 18:11 | 52.69213 | 3.43458 | 31300 ft | 422 kts | 100° |
| 2026-04-30 18:13 | 52.66926 | 3.67341 | 31300 ft | 422 kts | 100° |
| 2026-04-30 18:14 | 52.64582 | 3.91207 | 31299 ft | 422 kts | 100° |
| 2026-04-30 18:15 | 52.61709 | 4.19813 | 31311 ft | 422 kts | 101° |
| 2026-04-30 18:16 | 52.59549 | 4.38803 | 31313 ft | 423 kts | 101° |
| 2026-04-30 18:17 | 52.58443 | 4.48306 | 31309 ft | 423 kts | 101° |
| 2026-04-30 18:18 | 52.56780 | 4.62513 | 31317 ft | 422 kts | 102° |
| 2026-04-30 18:18 | 52.55649 | 4.71981 | 31318 ft | 421 kts | 101° |
| 2026-04-30 18:19 | 52.54936 | 4.81458 | 31328 ft | 421 kts | 84° |
| 2026-04-30 18:19 | 52.55608 | 4.86146 | 31338 ft | 422 kts | 71° |
| 2026-04-30 18:19 | 52.56840 | 4.90544 | 31337 ft | 424 kts | 62° |
| 2026-04-30 18:20 | 52.60168 | 4.98581 | 31337 ft | 425 kts | 55° |
| 2026-04-30 18:20 | 52.62960 | 5.07036 | 31338 ft | 423 kts | 65° |
| 2026-04-30 18:21 | 52.65564 | 5.15751 | 31333 ft | 423 kts | 65° |
| 2026-04-30 18:21 | 52.68182 | 5.24467 | 31331 ft | 424 kts | 64° |
| 2026-04-30 18:22 | 52.70796 | 5.33191 | 31331 ft | 424 kts | 64° |
| 2026-04-30 18:22 | 52.74684 | 5.46246 | 31333 ft | 424 kts | 65° |
| 2026-04-30 18:23 | 52.77277 | 5.55007 | 31339 ft | 424 kts | 64° |
| 2026-04-30 18:23 | 52.79852 | 5.63726 | 31343 ft | 424 kts | 64° |
| 2026-04-30 18:24 | 52.83739 | 5.76892 | 31351 ft | 424 kts | 64° |
| 2026-04-30 18:25 | 52.86309 | 5.85621 | 31354 ft | 424 kts | 65° |
| 2026-04-30 18:25 | 52.90153 | 5.98773 | 31359 ft | 424 kts | 64° |
| 2026-04-30 18:26 | 52.94009 | 6.12004 | 31365 ft | 423 kts | 65° |
| 2026-04-30 18:27 | 52.97819 | 6.25171 | 31371 ft | 423 kts | 64° |
| 2026-04-30 18:28 | 53.01620 | 6.38374 | 31377 ft | 423 kts | 64° |
| 2026-04-30 18:28 | 53.05420 | 6.51647 | 31376 ft | 423 kts | 65° |
| 2026-04-30 18:29 | 53.10455 | 6.69331 | 31375 ft | 423 kts | 65° |
| 2026-04-30 18:30 | 53.15458 | 6.87053 | 31382 ft | 423 kts | 64° |
| 2026-04-30 18:31 | 53.19201 | 7.00349 | 31400 ft | 423 kts | 64° |
| 2026-04-30 18:32 | 53.22927 | 7.13730 | 31401 ft | 423 kts | 64° |
| 2026-04-30 18:33 | 53.26621 | 7.27059 | 31406 ft | 423 kts | 64° |
| 2026-04-30 18:33 | 53.30320 | 7.40460 | 30766 ft | 421 kts | 65° |
| 2026-04-30 18:34 | 53.31526 | 7.44900 | 30106 ft | 416 kts | 65° |
| 2026-04-30 18:34 | 53.33900 | 7.53703 | 28339 ft | 415 kts | 65° |
| 2026-04-30 18:34 | 53.35099 | 7.58063 | 27683 ft | 410 kts | 65° |
| 2026-04-30 18:35 | 53.36280 | 7.62388 | 27021 ft | 405 kts | 65° |
| 2026-04-30 18:35 | 53.37445 | 7.66655 | 26377 ft | 401 kts | 65° |
| 2026-04-30 18:35 | 53.38605 | 7.70896 | 25748 ft | 397 kts | 65° |
| 2026-04-30 18:36 | 53.40885 | 7.79209 | 24558 ft | 389 kts | 65° |
| 2026-04-30 18:36 | 53.41998 | 7.83338 | 23972 ft | 386 kts | 66° |
| 2026-04-30 18:36 | 53.44146 | 7.91434 | 22721 ft | 377 kts | 66° |
| 2026-04-30 18:37 | 53.45224 | 7.95425 | 22111 ft | 373 kts | 66° |
| 2026-04-30 18:37 | 53.46284 | 7.99388 | 21510 ft | 369 kts | 66° |
| 2026-04-30 18:37 | 53.47325 | 8.03304 | 20941 ft | 365 kts | 66° |
| 2026-04-30 18:37 | 53.48356 | 8.07185 | 20370 ft | 361 kts | 66° |
| 2026-04-30 18:38 | 53.49366 | 8.10979 | 19775 ft | 357 kts | 66° |
| 2026-04-30 18:38 | 53.50381 | 8.14775 | 19117 ft | 354 kts | 66° |
| 2026-04-30 18:38 | 53.51394 | 8.18544 | 18448 ft | 350 kts | 66° |
| 2026-04-30 18:38 | 53.52381 | 8.22201 | 17752 ft | 346 kts | 66° |
| 2026-04-30 18:39 | 53.53357 | 8.25876 | 17061 ft | 341 kts | 67° |
| 2026-04-30 18:39 | 53.54316 | 8.29520 | 16382 ft | 338 kts | 67° |
| 2026-04-30 18:39 | 53.55263 | 8.33116 | 15719 ft | 334 kts | 68° |
| 2026-04-30 18:39 | 53.56190 | 8.36640 | 15083 ft | 330 kts | 68° |
| 2026-04-30 18:40 | 53.57125 | 8.40166 | 14440 ft | 327 kts | 68° |
| 2026-04-30 18:40 | 53.58050 | 8.43649 | 13769 ft | 324 kts | 67° |
| 2026-04-30 18:40 | 53.58968 | 8.47100 | 13065 ft | 321 kts | 67° |
| 2026-04-30 18:40 | 53.59877 | 8.50532 | 12393 ft | 318 kts | 67° |
| 2026-04-30 18:41 | 53.60770 | 8.53917 | 11861 ft | 313 kts | 67° |
| 2026-04-30 18:41 | 53.61626 | 8.57182 | 11574 ft | 300 kts | 68° |
| 2026-04-30 18:41 | 53.62430 | 8.60349 | 11180 ft | 293 kts | 68° |
| 2026-04-30 18:41 | 53.63232 | 8.63475 | 10812 ft | 287 kts | 68° |
| 2026-04-30 18:42 | 53.64020 | 8.66515 | 10560 ft | 278 kts | 68° |
| 2026-04-30 18:42 | 53.65563 | 8.72442 | 10448 ft | 280 kts | 68° |
| 2026-04-30 18:42 | 53.66345 | 8.75448 | 10435 ft | 281 kts | 68° |
| 2026-04-30 18:45 | 53.74042 | 9.05332 | 10421 ft | 274 kts | 68° |
| 2026-04-30 18:45 | 53.74798 | 9.08288 | 10429 ft | 274 kts | 68° |
| 2026-04-30 18:45 | 53.75551 | 9.11248 | 10428 ft | 273 kts | 69° |
| 2026-04-30 18:46 | 53.75861 | 9.14367 | 10433 ft | 271 kts | 97° |
| 2026-04-30 18:46 | 53.75312 | 9.17397 | 10443 ft | 271 kts | 110° |
| 2026-04-30 18:46 | 53.74618 | 9.20321 | 10437 ft | 272 kts | 111° |
| 2026-04-30 18:46 | 53.73885 | 9.23280 | 10435 ft | 272 kts | 112° |
| 2026-04-30 18:47 | 53.73126 | 9.26217 | 10432 ft | 273 kts | 112° |
| 2026-04-30 18:47 | 53.72352 | 9.29148 | 10282 ft | 272 kts | 112° |
| 2026-04-30 18:47 | 53.71571 | 9.32072 | 9929 ft | 272 kts | 113° |
| 2026-04-30 18:47 | 53.70802 | 9.34933 | 9630 ft | 270 kts | 113° |
| 2026-04-30 18:48 | 53.70025 | 9.37810 | 9328 ft | 268 kts | 113° |
| 2026-04-30 18:48 | 53.69252 | 9.40671 | 9037 ft | 267 kts | 113° |
| 2026-04-30 18:48 | 53.68480 | 9.43518 | 8748 ft | 265 kts | 113° |
| 2026-04-30 18:48 | 53.67712 | 9.46346 | 8473 ft | 264 kts | 113° |
| 2026-04-30 18:49 | 53.66948 | 9.49155 | 8198 ft | 261 kts | 113° |
| 2026-04-30 18:49 | 53.66199 | 9.51905 | 7907 ft | 255 kts | 113° |
| 2026-04-30 18:49 | 53.65465 | 9.54595 | 7650 ft | 250 kts | 113° |
| 2026-04-30 18:49 | 53.64774 | 9.57119 | 7487 ft | 232 kts | 113° |
| 2026-04-30 18:50 | 53.64096 | 9.59579 | 7445 ft | 230 kts | 113° |
| 2026-04-30 18:50 | 53.63422 | 9.62019 | 7427 ft | 229 kts | 114° |
| 2026-04-30 18:50 | 53.62433 | 9.64084 | 7423 ft | 230 kts | 145° |
| 2026-04-30 18:50 | 53.60917 | 9.64813 | 7124 ft | 240 kts | 179° |
| 2026-04-30 18:51 | 53.59308 | 9.63958 | 6830 ft | 249 kts | 211° |
| 2026-04-30 18:51 | 53.58067 | 9.61922 | 6566 ft | 250 kts | 227° |
| 2026-04-30 18:51 | 53.56940 | 9.59685 | 6309 ft | 249 kts | 227° |
| 2026-04-30 18:51 | 53.55864 | 9.57463 | 6063 ft | 247 kts | 229° |
| 2026-04-30 18:52 | 53.54800 | 9.55198 | 5818 ft | 246 kts | 229° |
| 2026-04-30 18:52 | 53.53752 | 9.52927 | 5582 ft | 244 kts | 230° |
| 2026-04-30 18:52 | 53.52719 | 9.50671 | 5339 ft | 243 kts | 230° |
| 2026-04-30 18:52 | 53.51697 | 9.48431 | 5112 ft | 241 kts | 230° |
| 2026-04-30 18:53 | 53.50679 | 9.46199 | 4865 ft | 239 kts | 230° |
| 2026-04-30 18:53 | 53.50011 | 9.44734 | 4696 ft | 238 kts | 230° |
| 2026-04-30 18:53 | 53.48407 | 9.42394 | 4365 ft | 229 kts | 195° |
| 2026-04-30 18:53 | 53.46859 | 9.42315 | 4103 ft | 221 kts | 160° |
| 2026-04-30 18:54 | 53.45618 | 9.43728 | 3844 ft | 217 kts | 125° |
| 2026-04-30 18:54 | 53.45118 | 9.46076 | 3604 ft | 218 kts | 92° |
| 2026-04-30 18:54 | 53.45150 | 9.47767 | 3568 ft | 218 kts | 87° |
| 2026-04-30 18:54 | 53.45252 | 9.50319 | 3545 ft | 219 kts | 86° |
| 2026-04-30 18:55 | 53.45386 | 9.52877 | 3493 ft | 222 kts | 85° |
| 2026-04-30 18:55 | 53.45723 | 9.57977 | 3150 ft | 217 kts | 84° |
| 2026-04-30 18:55 | 53.45978 | 9.60428 | 3064 ft | 216 kts | 69° |
| 2026-04-30 18:56 | 53.47572 | 9.64827 | 3035 ft | 226 kts | 59° |
| 2026-04-30 18:56 | 53.48404 | 9.67048 | 3030 ft | 227 kts | 59° |
| 2026-04-30 18:56 | 53.49259 | 9.69277 | 3028 ft | 226 kts | 58° |
| 2026-04-30 18:57 | 53.50962 | 9.73580 | 3010 ft | 211 kts | 57° |
| 2026-04-30 18:57 | 53.51765 | 9.75567 | 3041 ft | 196 kts | 57° |
| 2026-04-30 18:57 | 53.52499 | 9.77341 | 2984 ft | 178 kts | 56° |
| 2026-04-30 18:58 | 53.54086 | 9.80809 | 2508 ft | 185 kts | 51° |
| 2026-04-30 18:58 | 53.54887 | 9.82376 | 2243 ft | 174 kts | 51° |
| 2026-04-30 18:58 | 53.55673 | 9.83925 | 2003 ft | 176 kts | 51° |
| 2026-04-30 18:59 | 53.57267 | 9.87146 | 1510 ft | 172 kts | 52° |
| 2026-04-30 19:00 | 53.59270 | 9.91202 | 966 ft | 147 kts | 52° |
| 2026-04-30 19:00 | 53.59915 | 9.92515 | 805 ft | 143 kts | 50° |
| 2026-04-30 19:00 | 53.61165 | 9.95035 | 365 ft | 138 kts | 51° |
| 2026-04-30 19:01 | 53.62302 | 9.97344 | 43 ft | 112 kts | 50° |
| 2026-04-30 19:01 | 53.62706 | 9.98156 | 42 ft | 57 kts | 50° |
| 2026-04-30 19:02 | 53.62675 | 9.98461 | 46 ft | 0 kts | 123° |
| 2026-04-30 19:02 | 53.62674 | 9.98514 | 46 ft | 8 kts | 61° |
| 2026-04-30 19:03 | 53.62803 | 9.98789 | 46 ft | 21 kts | 51° |
| 2026-04-30 19:03 | 53.62941 | 9.99064 | 46 ft | 0 kts | 49° |
| 2026-04-30 19:04 | 53.62947 | 9.99075 | 46 ft | 5 kts | 49° |
| 2026-04-30 19:04 | 53.63001 | 9.99318 | 46 ft | 11 kts | 146° |
| 2026-04-30 19:05 | 53.62902 | 9.99406 | 46 ft | 6 kts | 152° |
| 2026-04-30 19:05 | 53.62860 | 9.99411 | 46 ft | 5 kts | 234° |
| 2026-04-30 19:06 | 53.62835 | 9.99332 | 46 ft | 1 kts | 243° |
| 2026-04-30 19:06 | 53.62834 | 9.99327 | 44 ft | 0 kts | 243° |